createdAt,value
2023-05-11T00:00:12.949Z,83.53
2023-05-11T00:01:12.940Z,83.22
2023-05-11T00:02:12.936Z,83.42
2023-05-11T00:03:13.033Z,83.62
2023-05-11T00:04:12.948Z,83.62
2023-05-11T00:05:12.896Z,83.73
2023-05-11T00:06:12.866Z,83.83
2023-05-11T00:07:12.882Z,83.73
2023-05-11T00:08:14.300Z,83.93
2023-05-11T00:09:12.869Z,83.93
2023-05-11T00:10:12.861Z,84.03
2023-05-11T00:11:12.824Z,84.13
2023-05-11T00:12:12.806Z,84.23
2023-05-11T00:13:12.791Z,84.34
2023-05-11T00:14:12.782Z,84.54
2023-05-11T00:15:12.778Z,84.13
2023-05-11T00:16:12.802Z,84.13
2023-05-11T00:17:12.752Z,84.23
2023-05-11T00:18:12.725Z,84.34
2023-05-11T00:19:12.774Z,84.13
2023-05-11T00:20:12.719Z,84.23
2023-05-11T00:21:12.724Z,84.34
2023-05-11T00:22:12.695Z,84.34
2023-05-11T00:23:12.679Z,84.34
2023-05-11T00:24:12.680Z,84.34
2023-05-11T00:25:12.686Z,84.44
2023-05-11T00:26:12.655Z,84.48
2023-05-11T00:27:12.644Z,84.44
2023-05-11T00:28:12.657Z,84.44
2023-05-11T00:29:12.610Z,84.48
2023-05-11T00:30:12.606Z,84.48
2023-05-11T00:31:12.626Z,84.58
2023-05-11T00:32:12.609Z,84.68
2023-05-11T00:33:12.605Z,84.68
2023-05-11T00:34:12.563Z,84.78
2023-05-11T00:35:12.558Z,84.99
2023-05-11T00:36:12.534Z,84.88
2023-05-11T00:37:12.539Z,84.99
2023-05-11T00:38:12.530Z,84.78
2023-05-11T00:39:12.553Z,84.78
2023-05-11T00:40:12.497Z,84.78
2023-05-11T00:41:12.494Z,84.68
2023-05-11T00:42:12.496Z,84.68
2023-05-11T00:43:12.470Z,84.68
2023-05-11T00:44:12.456Z,84.68
2023-05-11T00:45:12.436Z,84.68
2023-05-11T00:46:12.424Z,84.78
2023-05-11T00:47:12.514Z,84.88
2023-05-11T00:48:12.416Z,85.09
2023-05-11T00:49:12.395Z,85.19
2023-05-11T00:50:12.385Z,85.19
2023-05-11T00:51:12.378Z,85.19
2023-05-11T00:52:12.381Z,85.19
2023-05-11T00:53:12.352Z,85.19
2023-05-11T00:54:12.355Z,85.29
2023-05-11T00:55:12.344Z,85.29
2023-05-11T00:56:12.341Z,85.49
2023-05-11T00:57:12.305Z,85.49
2023-05-11T00:58:12.316Z,85.49
2023-05-11T00:59:12.289Z,85.49
2023-05-11T01:00:12.299Z,85.49
2023-05-11T01:01:12.345Z,85.60
2023-05-11T01:02:12.279Z,85.60
2023-05-11T01:03:12.286Z,85.60
2023-05-11T01:04:12.225Z,85.70
2023-05-11T01:05:12.234Z,85.70
2023-05-11T01:06:12.245Z,85.70
2023-05-11T01:07:12.224Z,85.60
2023-05-11T01:08:12.210Z,85.29
2023-05-11T01:09:12.188Z,85.29
2023-05-11T01:10:12.184Z,85.49
2023-05-11T01:11:12.178Z,85.60
2023-05-11T01:12:12.167Z,85.60
2023-05-11T01:13:12.154Z,85.60
2023-05-11T01:14:12.128Z,85.49
2023-05-11T01:15:12.123Z,85.49
2023-05-11T01:16:12.177Z,85.29
2023-05-11T01:17:12.102Z,85.19
2023-05-11T01:18:12.131Z,85.29
2023-05-11T01:19:12.101Z,85.19
2023-05-11T01:20:12.069Z,85.19
2023-05-11T01:21:12.059Z,85.29
2023-05-11T01:22:12.066Z,85.39
2023-05-11T01:23:12.043Z,85.70
2023-05-11T01:24:12.032Z,85.70
2023-05-11T01:25:12.024Z,85.49
2023-05-11T01:26:12.018Z,85.49
2023-05-11T01:27:11.982Z,85.60
2023-05-11T01:28:11.980Z,85.60
2023-05-11T01:29:11.983Z,85.70
2023-05-11T01:30:11.947Z,85.60
2023-05-11T01:31:11.940Z,85.70
2023-05-11T01:32:11.975Z,85.49
2023-05-11T01:33:12.008Z,85.60
2023-05-11T01:34:11.922Z,85.60
2023-05-11T01:35:11.923Z,85.60
2023-05-11T01:36:11.933Z,85.60
2023-05-11T01:37:11.905Z,85.70
2023-05-11T01:38:11.928Z,85.90
2023-05-11T01:39:11.909Z,86.00
2023-05-11T01:40:11.869Z,86.10
2023-05-11T01:41:11.840Z,86.21
2023-05-11T01:42:11.875Z,86.41
2023-05-11T01:43:11.876Z,86.41
2023-05-11T01:44:11.875Z,86.31
2023-05-11T01:45:11.877Z,86.10
2023-05-11T01:46:11.834Z,86.00
2023-05-11T01:47:11.769Z,86.00
2023-05-11T01:48:11.771Z,86.31
2023-05-11T01:49:11.788Z,86.41
2023-05-11T01:50:11.751Z,86.41
2023-05-11T01:51:11.737Z,86.51
2023-05-11T01:52:11.717Z,86.10
2023-05-11T01:53:11.712Z,85.60
2023-05-11T01:54:11.675Z,85.80
2023-05-11T01:55:11.694Z,85.19
2023-05-11T01:56:11.675Z,85.49
2023-05-11T01:57:11.654Z,85.70
2023-05-11T01:58:11.636Z,85.80
2023-05-11T01:59:11.632Z,85.60
2023-05-11T02:00:11.637Z,85.49
2023-05-11T02:01:11.676Z,85.60
2023-05-11T02:02:11.616Z,85.80
2023-05-11T02:03:11.732Z,85.80
2023-05-11T02:04:11.590Z,85.80
2023-05-11T02:05:11.571Z,85.29
2023-05-11T02:06:11.568Z,85.19
2023-05-11T02:07:11.546Z,85.29
2023-05-11T02:08:11.542Z,84.99
2023-05-11T02:09:11.523Z,84.88
2023-05-11T02:10:11.510Z,84.99
2023-05-11T02:11:11.510Z,84.99
2023-05-11T02:12:11.498Z,84.78
2023-05-11T02:13:11.496Z,84.58
2023-05-11T02:14:11.483Z,84.68
2023-05-11T02:15:11.460Z,84.92
2023-05-11T02:16:11.473Z,84.82
2023-05-11T02:17:11.441Z,84.92
2023-05-11T02:18:11.419Z,84.72
2023-05-11T02:19:11.443Z,84.72
2023-05-11T02:20:11.394Z,84.72
2023-05-11T02:21:11.394Z,84.62
2023-05-11T02:22:11.410Z,84.72
2023-05-11T02:23:11.379Z,84.82
2023-05-11T02:24:11.362Z,84.82
2023-05-11T02:25:11.373Z,84.82
2023-05-11T02:26:11.333Z,85.03
2023-05-11T02:27:11.329Z,85.23
2023-05-11T02:28:11.320Z,85.03
2023-05-11T02:29:11.322Z,84.72
2023-05-11T02:30:11.297Z,84.62
2023-05-11T02:31:11.322Z,84.62
2023-05-11T02:32:11.297Z,84.42
2023-05-11T02:33:11.268Z,84.62
2023-05-11T02:34:11.268Z,84.72
2023-05-11T02:35:11.247Z,84.72
2023-05-11T02:36:11.224Z,84.82
2023-05-11T02:37:11.253Z,84.82
2023-05-11T02:38:11.207Z,84.82
2023-05-11T02:39:11.214Z,84.92
2023-05-11T02:40:11.181Z,85.03
2023-05-11T02:41:11.186Z,84.92
2023-05-11T02:42:11.160Z,85.03
2023-05-11T02:43:11.170Z,84.92
2023-05-11T02:44:11.152Z,84.82
2023-05-11T02:45:11.155Z,84.92
2023-05-11T02:46:11.141Z,85.13
2023-05-11T02:47:11.117Z,85.03
2023-05-11T02:48:11.110Z,85.13
2023-05-11T02:49:11.107Z,85.23
2023-05-11T02:50:11.100Z,85.23
2023-05-11T02:51:11.074Z,84.92
2023-05-11T02:52:11.058Z,85.03
2023-05-11T02:53:11.050Z,85.03
2023-05-11T02:54:11.032Z,85.23
2023-05-11T02:55:11.047Z,85.03
2023-05-11T02:56:11.016Z,85.13
2023-05-11T02:57:10.999Z,85.13
2023-05-11T02:58:11.016Z,85.03
2023-05-11T02:59:10.999Z,84.82
2023-05-11T03:00:10.990Z,84.82
2023-05-11T03:01:11.065Z,84.72
2023-05-11T03:02:11.091Z,84.62
2023-05-11T03:03:11.048Z,84.72
2023-05-11T03:04:10.961Z,84.82
2023-05-11T03:05:10.987Z,84.82
2023-05-11T03:06:10.919Z,84.82
2023-05-11T03:07:10.902Z,84.62
2023-05-11T03:08:10.909Z,84.82
2023-05-11T03:09:10.872Z,84.92
2023-05-11T03:10:10.862Z,84.82
2023-05-11T03:11:10.885Z,85.03
2023-05-11T03:12:10.840Z,85.13
2023-05-11T03:13:10.842Z,84.86
2023-05-11T03:14:10.849Z,84.97
2023-05-11T03:15:10.814Z,85.06
2023-05-11T03:16:10.814Z,85.17
2023-05-11T03:17:10.789Z,85.27
2023-05-11T03:18:10.778Z,85.17
2023-05-11T03:19:10.777Z,85.17
2023-05-11T03:20:10.757Z,85.47
2023-05-11T03:21:10.763Z,85.47
2023-05-11T03:22:10.734Z,85.68
2023-05-11T03:23:10.732Z,85.78
2023-05-11T03:24:10.709Z,85.58
2023-05-11T03:25:10.755Z,85.58
2023-05-11T03:26:10.728Z,85.47
2023-05-11T03:27:10.693Z,85.37
2023-05-11T03:28:10.669Z,85.58
2023-05-11T03:29:10.669Z,85.58
2023-05-11T03:30:10.650Z,85.47
2023-05-11T03:31:10.657Z,85.58
2023-05-11T03:32:10.672Z,85.58
2023-05-11T03:33:10.702Z,85.68
2023-05-11T03:34:10.608Z,85.68
2023-05-11T03:35:10.631Z,85.68
2023-05-11T03:36:10.586Z,85.68
2023-05-11T03:37:10.598Z,85.58
2023-05-11T03:38:10.560Z,85.78
2023-05-11T03:39:10.577Z,85.68
2023-05-11T03:40:10.573Z,85.58
2023-05-11T03:41:10.543Z,85.78
2023-05-11T03:42:10.544Z,85.68
2023-05-11T03:43:10.519Z,85.78
2023-05-11T03:44:10.506Z,85.58
2023-05-11T03:45:10.491Z,85.78
2023-05-11T03:46:11.239Z,85.88
2023-05-11T03:47:10.516Z,85.78
2023-05-11T03:48:11.482Z,85.78
2023-05-11T03:49:12.854Z,85.78
2023-05-11T03:50:11.247Z,85.88
2023-05-11T03:51:10.467Z,85.68
2023-05-11T03:52:11.457Z,85.68
2023-05-11T03:53:10.937Z,85.27
2023-05-11T03:54:11.214Z,85.27
2023-05-11T03:55:10.427Z,85.37
2023-05-11T03:56:11.083Z,85.58
2023-05-11T03:57:10.439Z,85.47
2023-05-11T03:58:11.240Z,85.47
2023-05-11T03:59:10.498Z,85.47
2023-05-11T04:00:11.145Z,85.58
2023-05-11T04:01:10.442Z,85.58
2023-05-11T04:02:11.142Z,85.68
2023-05-11T04:03:10.703Z,85.68
2023-05-11T04:04:10.533Z,85.78
2023-05-11T04:05:10.402Z,85.47
2023-05-11T04:06:10.990Z,85.47
2023-05-11T04:07:10.295Z,85.47
2023-05-11T04:08:11.223Z,85.27
2023-05-11T04:09:10.336Z,85.27
2023-05-11T04:10:10.999Z,85.17
2023-05-11T04:11:10.316Z,85.31
2023-05-11T04:12:10.938Z,85.21
2023-05-11T04:13:10.289Z,85.31
2023-05-11T04:14:10.913Z,85.51
2023-05-11T04:15:10.229Z,85.61
2023-05-11T04:16:10.985Z,85.61
2023-05-11T04:17:10.279Z,85.72
2023-05-11T04:18:10.356Z,85.72
2023-05-11T04:19:10.159Z,85.61
2023-05-11T04:20:10.889Z,85.72
2023-05-11T04:21:10.136Z,85.82
2023-05-11T04:22:10.812Z,85.51
2023-05-11T04:23:10.620Z,85.61
2023-05-11T04:24:10.786Z,85.51
2023-05-11T04:25:10.122Z,85.72
2023-05-11T04:26:10.070Z,85.82
2023-05-11T04:27:10.119Z,85.82
2023-05-11T04:28:10.071Z,85.82
2023-05-11T04:29:10.065Z,85.92
2023-05-11T04:30:11.505Z,85.72
2023-05-11T04:31:10.069Z,85.61
2023-05-11T04:32:10.006Z,85.82
2023-05-11T04:33:09.984Z,85.72
2023-05-11T04:34:09.969Z,85.61
2023-05-11T04:35:09.978Z,85.82
2023-05-11T04:36:09.946Z,85.51
2023-05-11T04:37:09.934Z,85.41
2023-05-11T04:38:09.942Z,85.37
2023-05-11T04:39:09.922Z,85.27
2023-05-11T04:40:09.893Z,85.47
2023-05-11T04:41:09.909Z,85.72
2023-05-11T04:42:09.871Z,85.68
2023-05-11T04:43:09.862Z,85.68
2023-05-11T04:44:09.847Z,85.68
2023-05-11T04:45:09.843Z,85.68
2023-05-11T04:46:09.844Z,85.68
2023-05-11T04:47:09.944Z,85.37
2023-05-11T04:48:09.868Z,85.06
2023-05-11T04:49:09.801Z,85.17
2023-05-11T04:50:09.778Z,85.27
2023-05-11T04:51:09.798Z,85.27
2023-05-11T04:52:09.762Z,85.27
2023-05-11T04:53:09.766Z,85.37
2023-05-11T04:54:09.743Z,85.37
2023-05-11T04:55:09.742Z,85.37
2023-05-11T04:56:09.739Z,85.37
2023-05-11T04:57:09.709Z,85.37
2023-05-11T04:58:09.699Z,85.17
2023-05-11T04:59:09.706Z,85.17
2023-05-11T05:00:09.724Z,85.27
2023-05-11T05:01:09.739Z,85.47
2023-05-11T05:02:09.706Z,85.27
2023-05-11T05:03:09.699Z,85.27
2023-05-11T05:04:09.655Z,85.58
2023-05-11T05:05:09.624Z,85.37
2023-05-11T05:06:09.631Z,85.06
2023-05-11T05:07:09.602Z,84.86
2023-05-11T05:08:09.589Z,85.06
2023-05-11T05:09:09.584Z,85.27
2023-05-11T05:10:09.572Z,85.37
2023-05-11T05:11:09.568Z,85.27
2023-05-11T05:12:09.554Z,85.27
2023-05-11T05:13:09.571Z,85.17
2023-05-11T05:14:09.539Z,85.17
2023-05-11T05:15:09.518Z,85.27
2023-05-11T05:16:09.516Z,85.06
2023-05-11T05:17:09.559Z,84.66
2023-05-11T05:18:09.538Z,84.86
2023-05-11T05:19:09.497Z,84.76
2023-05-11T05:20:09.467Z,84.86
2023-05-11T05:21:09.467Z,84.97
2023-05-11T05:22:09.448Z,84.86
2023-05-11T05:23:09.434Z,84.97
2023-05-11T05:24:09.424Z,85.27
2023-05-11T05:25:09.424Z,84.86
2023-05-11T05:26:09.408Z,84.86
2023-05-11T05:27:09.399Z,84.97
2023-05-11T05:28:09.393Z,85.06
2023-05-11T05:29:09.387Z,85.06
2023-05-11T05:30:09.390Z,85.06
2023-05-11T05:31:09.400Z,85.27
2023-05-11T05:32:09.351Z,85.13
2023-05-11T05:33:09.353Z,84.82
2023-05-11T05:34:09.314Z,84.72
2023-05-11T05:35:09.326Z,84.72
2023-05-11T05:36:09.314Z,84.82
2023-05-11T05:37:09.294Z,84.82
2023-05-11T05:38:09.276Z,84.92
2023-05-11T05:39:09.265Z,84.72
2023-05-11T05:40:09.253Z,84.72
2023-05-11T05:41:09.243Z,84.62
2023-05-11T05:42:09.240Z,84.11
2023-05-11T05:43:09.230Z,84.31
2023-05-11T05:44:09.207Z,84.62
2023-05-11T05:45:09.217Z,84.82
2023-05-11T05:46:09.224Z,84.62
2023-05-11T05:47:09.167Z,84.01
2023-05-11T05:48:09.204Z,83.91
2023-05-11T05:49:09.157Z,84.01
2023-05-11T05:50:09.154Z,83.70
2023-05-11T05:51:09.147Z,83.91
2023-05-11T05:52:09.124Z,83.91
2023-05-11T05:53:09.127Z,83.91
2023-05-11T05:54:09.098Z,83.70
2023-05-11T05:55:09.098Z,83.70
2023-05-11T05:56:09.081Z,83.76
2023-05-11T05:57:09.069Z,83.76
2023-05-11T05:58:09.062Z,83.87
2023-05-11T05:59:09.048Z,83.87
2023-05-11T06:00:09.028Z,83.76
2023-05-11T06:01:09.016Z,83.56
2023-05-11T06:02:09.798Z,83.46
2023-05-11T06:03:09.137Z,83.67
2023-05-11T06:04:09.210Z,83.76
2023-05-11T06:05:08.996Z,84.07
2023-05-11T06:06:08.979Z,83.97
2023-05-11T06:07:08.963Z,84.07
2023-05-11T06:08:10.651Z,83.76
2023-05-11T06:09:08.944Z,83.87
2023-05-11T06:10:08.949Z,83.97
2023-05-11T06:11:08.902Z,84.07
2023-05-11T06:12:08.929Z,84.07
2023-05-11T06:13:08.890Z,84.48
2023-05-11T06:14:08.903Z,84.28
2023-05-11T06:15:08.883Z,84.28
2023-05-11T06:16:08.890Z,84.28
2023-05-11T06:17:08.851Z,84.48
2023-05-11T06:18:08.944Z,84.48
2023-05-11T06:19:09.002Z,84.48
2023-05-11T06:20:08.828Z,84.58
2023-05-11T06:21:08.809Z,84.48
2023-05-11T06:22:08.794Z,84.58
2023-05-11T06:23:08.774Z,84.28
2023-05-11T06:24:08.778Z,84.58
2023-05-11T06:25:08.757Z,84.58
2023-05-11T06:26:08.743Z,84.78
2023-05-11T06:27:08.750Z,84.95
2023-05-11T06:28:08.728Z,84.95
2023-05-11T06:29:08.739Z,85.05
2023-05-11T06:30:08.708Z,85.25
2023-05-11T06:31:08.689Z,85.05
2023-05-11T06:32:08.698Z,84.74
2023-05-11T06:33:08.713Z,84.64
2023-05-11T06:34:08.673Z,84.64
2023-05-11T06:35:08.645Z,84.13
2023-05-11T06:36:08.641Z,84.13
2023-05-11T06:37:08.640Z,84.20
2023-05-11T06:38:08.623Z,83.69
2023-05-11T06:39:08.610Z,83.89
2023-05-11T06:40:08.599Z,84.44
2023-05-11T06:41:08.579Z,84.54
2023-05-11T06:42:08.591Z,84.34
2023-05-11T06:43:08.556Z,83.73
2023-05-11T06:44:08.555Z,83.93
2023-05-11T06:45:08.583Z,84.20
2023-05-11T06:46:08.555Z,84.50
2023-05-11T06:47:08.515Z,83.99
2023-05-11T06:48:08.544Z,83.79
2023-05-11T06:49:08.514Z,83.89
2023-05-11T06:50:08.485Z,83.99
2023-05-11T06:51:08.470Z,84.40
2023-05-11T06:52:08.463Z,84.30
2023-05-11T06:53:08.466Z,84.40
2023-05-11T06:54:08.447Z,84.30
2023-05-11T06:55:08.427Z,84.30
2023-05-11T06:56:08.441Z,84.40
2023-05-11T06:57:08.421Z,85.01
2023-05-11T06:58:08.398Z,85.41
2023-05-11T06:59:08.388Z,85.92
2023-05-11T07:00:08.389Z,85.41
2023-05-11T07:01:08.414Z,85.21
2023-05-11T07:02:08.363Z,84.91
2023-05-11T07:03:08.374Z,85.21
2023-05-11T07:04:08.357Z,85.11
2023-05-11T07:05:08.452Z,84.91
2023-05-11T07:06:08.327Z,85.31
2023-05-11T07:07:08.298Z,85.41
2023-05-11T07:08:08.309Z,85.21
2023-05-11T07:09:08.272Z,84.80
2023-05-11T07:10:08.265Z,85.41
2023-05-11T07:11:08.252Z,85.31
2023-05-11T07:12:08.247Z,85.72
2023-05-11T07:13:08.232Z,85.41
2023-05-11T07:14:08.238Z,85.21
2023-05-11T07:15:08.205Z,85.31
2023-05-11T07:16:08.202Z,85.31
2023-05-11T07:17:08.285Z,85.82
2023-05-11T07:18:08.214Z,85.62
2023-05-11T07:19:08.291Z,85.38
2023-05-11T07:20:08.158Z,86.08
2023-05-11T07:21:08.150Z,86.08
2023-05-11T07:22:08.158Z,85.38
2023-05-11T07:23:08.130Z,85.98
2023-05-11T07:24:08.119Z,86.29
2023-05-11T07:25:08.097Z,85.58
2023-05-11T07:26:08.098Z,85.78
2023-05-11T07:27:08.074Z,86.19
2023-05-11T07:28:08.078Z,86.49
2023-05-11T07:29:08.056Z,86.29
2023-05-11T07:30:08.060Z,86.29
2023-05-11T07:31:08.127Z,85.98
2023-05-11T07:32:08.043Z,85.17
2023-05-11T07:33:08.063Z,85.47
2023-05-11T07:34:07.996Z,85.88
2023-05-11T07:35:08.001Z,85.17
2023-05-11T07:36:07.998Z,85.58
2023-05-11T07:37:07.976Z,85.38
2023-05-11T07:38:08.038Z,85.47
2023-05-11T07:39:07.951Z,86.29
2023-05-11T07:40:07.941Z,85.68
2023-05-11T07:41:09.494Z,85.17
2023-05-11T07:42:07.937Z,85.47
2023-05-11T07:43:07.920Z,85.78
2023-05-11T07:44:07.894Z,85.68
2023-05-11T07:45:07.880Z,86.19
2023-05-11T07:46:07.906Z,86.90
2023-05-11T07:47:07.867Z,87.20
2023-05-11T07:48:07.954Z,87.71
2023-05-11T07:50:08.842Z,87.71
2023-05-11T07:51:07.822Z,88.28
2023-05-11T07:52:07.812Z,88.18
2023-05-11T07:53:07.793Z,87.97
2023-05-11T07:54:07.789Z,87.87
2023-05-11T07:55:07.767Z,87.97
2023-05-11T07:56:07.784Z,87.67
2023-05-11T07:57:07.757Z,86.91
2023-05-11T07:58:07.752Z,85.94
2023-05-11T07:59:07.746Z,85.74
2023-05-11T08:00:08.207Z,85.94
2023-05-11T08:01:07.726Z,86.51
2023-05-11T08:02:07.724Z,86.61
2023-05-11T08:03:07.730Z,86.82
2023-05-11T08:04:07.695Z,86.10
2023-05-11T08:05:07.671Z,86.10
2023-05-11T08:06:07.702Z,85.84
2023-05-11T08:07:07.656Z,85.44
2023-05-11T08:08:07.641Z,86.65
2023-05-11T08:09:07.620Z,87.06
2023-05-11T08:10:07.618Z,87.06
2023-05-11T08:11:07.620Z,86.55
2023-05-11T08:12:07.594Z,86.55
2023-05-11T08:13:07.579Z,86.61
2023-05-11T08:14:07.582Z,87.12
2023-05-11T08:15:07.566Z,86.91
2023-05-11T08:16:07.587Z,87.43
2023-05-11T08:17:07.534Z,85.90
2023-05-11T08:18:07.638Z,86.21
2023-05-11T08:19:07.540Z,86.71
2023-05-11T08:20:07.534Z,86.31
2023-05-11T08:21:07.492Z,86.10
2023-05-11T08:22:07.490Z,86.71
2023-05-11T08:23:07.467Z,85.90
2023-05-11T08:24:07.626Z,86.41
2023-05-11T08:25:07.490Z,85.80
2023-05-11T08:26:07.446Z,85.09
2023-05-11T08:27:07.420Z,85.70
2023-05-11T08:28:07.440Z,86.10
2023-05-11T08:29:07.407Z,85.39
2023-05-11T08:30:08.500Z,85.30
2023-05-11T08:31:07.380Z,85.50
2023-05-11T08:32:07.440Z,86.00
2023-05-11T08:33:20.128Z,86.71
2023-05-11T08:34:17.847Z,86.41
2023-05-11T08:35:08.539Z,85.80
2023-05-11T08:36:07.352Z,86.00
2023-05-11T08:37:07.317Z,86.82
2023-05-11T08:38:07.313Z,86.41
2023-05-11T08:39:07.286Z,86.51
2023-05-11T08:40:07.286Z,86.00
2023-05-11T08:41:07.292Z,86.10
2023-05-11T08:42:07.353Z,86.68
2023-05-11T08:43:07.257Z,87.18
2023-05-11T08:44:07.272Z,87.08
2023-05-11T08:45:07.229Z,86.37
2023-05-11T08:46:07.312Z,85.66
2023-05-11T08:47:22.032Z,84.64
2023-05-11T08:48:08.286Z,84.44
2023-05-11T08:49:07.184Z,84.85
2023-05-11T08:50:07.191Z,85.56
2023-05-11T08:51:07.171Z,85.66
2023-05-11T08:52:07.943Z,85.15
2023-05-11T08:53:07.162Z,85.56
2023-05-11T08:54:07.139Z,85.66
2023-05-11T08:55:07.124Z,86.47
2023-05-11T08:56:07.113Z,87.28
2023-05-11T08:57:07.141Z,85.86
2023-05-11T08:58:07.100Z,86.47
2023-05-11T08:59:07.126Z,84.95
2023-05-11T09:00:07.075Z,85.36
2023-05-11T09:01:07.127Z,85.25
2023-05-11T09:02:07.048Z,85.86
2023-05-11T09:03:07.086Z,86.07
2023-05-11T09:04:07.024Z,86.37
2023-05-11T09:05:07.053Z,85.46
2023-05-11T09:06:07.025Z,86.07
2023-05-11T09:07:06.985Z,85.96
2023-05-11T09:08:06.991Z,86.07
2023-05-11T09:09:06.973Z,86.83
2023-05-11T09:10:06.957Z,86.73
2023-05-11T09:11:06.965Z,86.22
2023-05-11T09:12:06.932Z,86.02
2023-05-11T09:13:06.934Z,85.62
2023-05-11T09:14:06.928Z,85.11
2023-05-11T09:15:06.919Z,85.42
2023-05-11T09:16:13.874Z,86.02
2023-05-11T09:17:08.038Z,86.02
2023-05-11T09:18:06.988Z,86.33
2023-05-11T09:19:06.968Z,86.94
2023-05-11T09:20:06.855Z,87.04
2023-05-11T09:21:06.858Z,86.94
2023-05-11T09:22:06.837Z,86.63
2023-05-11T09:23:06.835Z,85.42
2023-05-11T09:24:06.811Z,85.52
2023-05-11T09:25:06.806Z,84.50
2023-05-11T09:26:06.796Z,84.50
2023-05-11T09:27:06.781Z,84.50
2023-05-11T09:28:06.782Z,84.70
2023-05-11T09:29:06.759Z,84.41
2023-05-11T09:30:06.762Z,84.81
2023-05-11T09:31:06.818Z,85.52
2023-05-11T09:32:06.730Z,86.43
2023-05-11T09:33:06.760Z,86.33
2023-05-11T09:34:06.707Z,85.62
2023-05-11T09:35:06.696Z,85.52
2023-05-11T09:36:06.695Z,85.31
2023-05-11T09:37:06.671Z,85.62
2023-05-11T09:38:06.688Z,85.42
2023-05-11T09:39:06.650Z,85.42
2023-05-11T09:40:26.307Z,84.81
2023-05-11T09:41:07.653Z,84.67
2023-05-11T09:42:06.611Z,84.47
2023-05-11T09:43:06.601Z,82.84
2023-05-11T09:44:06.595Z,84.06
2023-05-11T09:45:06.614Z,84.67
2023-05-11T09:46:06.620Z,85.17
2023-05-11T09:47:06.569Z,84.87
2023-05-11T09:48:06.651Z,84.67
2023-05-11T09:49:06.535Z,84.16
2023-05-11T09:50:06.565Z,83.96
2023-05-11T09:51:06.567Z,83.86
2023-05-11T09:52:06.529Z,84.47
2023-05-11T09:53:06.497Z,84.06
2023-05-11T09:54:06.480Z,84.97
2023-05-11T09:55:06.476Z,84.67
2023-05-11T09:56:06.471Z,85.27
2023-05-11T09:57:06.450Z,84.36
2023-05-11T09:58:06.461Z,84.56
2023-05-11T09:59:06.437Z,83.82
2023-05-11T10:00:06.415Z,84.42
2023-05-11T10:01:06.480Z,83.92
2023-05-11T10:02:06.396Z,83.51
2023-05-11T10:03:06.461Z,83.72
2023-05-11T10:04:21.956Z,84.53
2023-05-11T10:05:07.364Z,84.93
2023-05-11T10:06:06.349Z,83.31
2023-05-11T10:07:06.358Z,83.92
2023-05-11T10:08:06.338Z,83.61
2023-05-11T10:09:06.325Z,84.02
2023-05-11T10:10:06.328Z,83.41
2023-05-11T10:11:06.310Z,83.61
2023-05-11T10:12:06.305Z,82.60
2023-05-11T10:13:06.277Z,83.11
2023-05-11T10:14:06.272Z,82.70
2023-05-11T10:15:06.271Z,83.11
2023-05-11T10:16:06.318Z,83.61
2023-05-11T10:17:06.247Z,84.12
2023-05-11T10:18:06.292Z,83.21
2023-05-11T10:19:06.242Z,83.92
2023-05-11T10:20:06.262Z,83.51
2023-05-11T10:21:06.204Z,83.41
2023-05-11T10:22:06.187Z,83.41
2023-05-11T10:23:06.168Z,84.22
2023-05-11T10:24:06.173Z,84.63
2023-05-11T10:25:06.157Z,85.13
2023-05-11T10:26:06.132Z,84.83
2023-05-11T10:27:06.145Z,83.51
2023-05-11T10:28:06.101Z,83.01
2023-05-11T10:29:06.102Z,82.30
2023-05-11T10:30:06.096Z,82.30
2023-05-11T10:31:06.080Z,81.69
2023-05-11T10:32:06.102Z,83.01
2023-05-11T10:33:06.148Z,83.82
2023-05-11T10:34:06.043Z,83.61
2023-05-11T10:35:06.057Z,84.33
2023-05-11T10:36:06.017Z,84.33
2023-05-11T10:37:06.020Z,83.41
2023-05-11T10:38:06.018Z,83.72
2023-05-11T10:39:06.069Z,83.78
2023-05-11T10:40:05.987Z,83.98
2023-05-11T10:41:05.964Z,82.46
2023-05-11T10:42:05.973Z,82.20
2023-05-11T10:43:05.948Z,82.90
2023-05-11T10:44:05.934Z,82.70
2023-05-11T10:45:05.962Z,82.70
2023-05-11T10:46:05.979Z,82.70
2023-05-11T10:47:05.920Z,83.01
2023-05-11T10:48:05.944Z,83.47
2023-05-11T10:49:05.882Z,83.58
2023-05-11T10:50:05.864Z,82.90
2023-05-11T10:51:05.867Z,82.50
2023-05-11T10:52:05.844Z,82.40
2023-05-11T10:53:05.850Z,82.60
2023-05-11T10:54:05.815Z,82.50
2023-05-11T10:55:05.822Z,82.30
2023-05-11T10:56:05.804Z,81.59
2023-05-11T10:57:05.796Z,81.35
2023-05-11T10:58:05.806Z,81.45
2023-05-11T10:59:05.804Z,82.16
2023-05-11T11:00:05.794Z,82.06
2023-05-11T11:01:05.856Z,81.96
2023-05-11T11:02:05.734Z,81.35
2023-05-11T11:03:05.759Z,81.15
2023-05-11T11:04:05.749Z,81.05
2023-05-11T11:05:05.854Z,81.15
2023-05-11T11:06:05.764Z,81.76
2023-05-11T11:07:05.718Z,80.64
2023-05-11T11:08:05.723Z,80.04
2023-05-11T11:09:05.668Z,79.53
2023-05-11T11:10:05.660Z,80.04
2023-05-11T11:11:06.630Z,80.64
2023-05-11T11:12:05.628Z,80.80
2023-05-11T11:13:05.656Z,80.60
2023-05-11T11:14:05.857Z,80.71
2023-05-11T11:15:05.634Z,80.40
2023-05-11T11:16:05.588Z,78.88
2023-05-11T11:17:05.645Z,79.79
2023-05-11T11:18:05.629Z,78.88
2023-05-11T11:19:05.633Z,76.76
2023-05-11T11:20:05.560Z,77.17
2023-05-11T11:21:05.543Z,77.17
2023-05-11T11:22:05.531Z,77.87
2023-05-11T11:23:05.584Z,79.39
2023-05-11T11:24:05.504Z,79.90
2023-05-11T11:25:05.507Z,79.29
2023-05-11T11:26:05.482Z,79.55
2023-05-11T11:27:05.478Z,78.95
2023-05-11T11:28:05.497Z,79.25
2023-05-11T11:29:05.457Z,79.55
2023-05-11T11:30:05.446Z,79.96
2023-05-11T11:31:05.472Z,79.05
2023-05-11T11:32:05.421Z,78.55
2023-05-11T11:33:05.449Z,79.05
2023-05-11T11:34:05.393Z,79.75
2023-05-11T11:35:05.393Z,79.66
2023-05-11T11:36:05.371Z,79.66
2023-05-11T11:37:05.387Z,80.06
2023-05-11T11:38:05.542Z,80.77
2023-05-11T11:39:05.361Z,80.36
2023-05-11T11:40:13.906Z,80.16
2023-05-11T11:41:06.341Z,79.05
2023-05-11T11:42:05.313Z,79.66
2023-05-11T11:43:05.306Z,79.75
2023-05-11T11:44:05.298Z,79.55
2023-05-11T11:45:05.286Z,78.64
2023-05-11T11:46:05.311Z,78.44
2023-05-11T11:47:05.263Z,78.44
2023-05-11T11:48:05.270Z,78.95
2023-05-11T11:49:05.234Z,78.55
2023-05-11T11:50:05.232Z,77.23
2023-05-11T11:51:05.251Z,77.13
2023-05-11T11:52:05.213Z,77.73
2023-05-11T11:53:05.198Z,77.64
2023-05-11T11:54:05.183Z,78.61
2023-05-11T11:55:05.336Z,76.59
2023-05-11T11:56:05.184Z,77.29
2023-05-11T11:57:05.154Z,75.78
2023-05-11T11:58:05.145Z,75.74
2023-05-11T11:59:05.171Z,76.45
2023-05-11T12:00:05.115Z,75.24
2023-05-11T12:01:05.112Z,74.63
2023-05-11T12:02:05.093Z,75.71
2023-05-11T12:03:05.109Z,75.10
2023-05-11T12:04:05.432Z,75.31
2023-05-11T12:05:05.172Z,74.56
2023-05-11T12:06:05.076Z,74.76
2023-05-11T12:07:05.045Z,74.96
2023-05-11T12:08:05.028Z,74.56
2023-05-11T12:09:05.042Z,75.57
2023-05-11T12:10:05.054Z,74.56
2023-05-11T12:11:05.007Z,74.36
2023-05-11T12:12:04.991Z,74.46
2023-05-11T12:13:04.981Z,74.29
2023-05-11T12:14:04.977Z,74.96
2023-05-11T12:15:04.975Z,75.37
2023-05-11T12:16:04.982Z,75.77
2023-05-11T12:17:04.938Z,75.07
2023-05-11T12:18:04.977Z,74.46
2023-05-11T12:19:04.926Z,74.69
2023-05-11T12:20:04.914Z,74.60
2023-05-11T12:21:04.893Z,75.10
2023-05-11T12:22:04.929Z,73.99
2023-05-11T12:23:04.882Z,74.16
2023-05-11T12:24:04.912Z,74.05
2023-05-11T12:25:04.861Z,72.24
2023-05-11T12:26:04.839Z,72.75
2023-05-11T12:27:04.828Z,72.91
2023-05-11T12:28:04.805Z,72.71
2023-05-11T12:29:04.828Z,71.80
2023-05-11T12:30:04.811Z,71.91
2023-05-11T12:31:04.797Z,72.20
2023-05-11T12:32:04.822Z,73.42
2023-05-11T12:33:04.841Z,73.82
2023-05-11T12:34:04.750Z,74.69
2023-05-11T12:35:04.756Z,73.48
2023-05-11T12:36:04.737Z,74.08
2023-05-11T12:37:04.722Z,73.68
2023-05-11T12:38:04.722Z,73.75
2023-05-11T12:39:04.691Z,73.75
2023-05-11T12:40:04.691Z,73.11
2023-05-11T12:41:04.693Z,73.21
2023-05-11T12:42:04.661Z,71.80
2023-05-11T12:43:04.662Z,69.89
2023-05-11T12:44:04.642Z,69.49
2023-05-11T12:45:04.644Z,69.59
2023-05-11T12:46:04.643Z,69.25
2023-05-11T12:47:04.612Z,69.15
2023-05-11T12:48:04.661Z,69.02
2023-05-11T12:49:04.605Z,68.62
2023-05-11T12:50:04.575Z,67.91
2023-05-11T12:51:04.597Z,66.20
2023-05-11T12:52:04.551Z,66.40
2023-05-11T12:53:04.556Z,67.11